createdAt,value
2019-02-12T00:00:40.522Z,1.56
2019-02-12T00:01:13.496Z,1.56
2019-02-12T00:01:46.438Z,1.56
2019-02-12T00:02:19.814Z,1.56
2019-02-12T00:02:52.838Z,1.50
2019-02-12T00:03:25.887Z,1.56
2019-02-12T00:03:58.942Z,1.50
2019-02-12T00:04:32.025Z,1.50
2019-02-12T00:05:05.215Z,1.56
2019-02-12T00:05:38.274Z,1.56
2019-02-12T00:06:11.161Z,1.50
2019-02-12T00:06:45.037Z,1.50
2019-02-12T00:07:17.953Z,1.50
2019-02-12T00:07:50.908Z,1.50
2019-02-12T00:08:23.850Z,1.50
2019-02-12T00:08:56.780Z,1.50
2019-02-12T00:09:30.877Z,1.50
2019-02-12T00:10:04.415Z,1.50
2019-02-12T00:10:37.483Z,1.50
2019-02-12T00:11:10.566Z,1.50
2019-02-12T00:11:43.662Z,1.50
2019-02-12T00:12:16.692Z,1.50
2019-02-12T00:12:49.626Z,1.44
2019-02-12T00:13:22.702Z,1.44
2019-02-12T00:13:56.899Z,1.44
2019-02-12T00:14:31.078Z,1.44
2019-02-12T00:15:04.694Z,1.44
2019-02-12T00:15:37.652Z,1.44
2019-02-12T00:16:10.716Z,1.44
2019-02-12T00:16:43.791Z,1.44
2019-02-12T00:20:19.149Z,1.37
2019-02-12T00:20:53.585Z,1.37
2019-02-12T00:21:26.542Z,1.31
2019-02-12T00:21:59.862Z,1.31
2019-02-12T00:22:32.959Z,1.31
2019-02-12T00:23:05.896Z,1.31
2019-02-12T00:23:39.059Z,1.31
2019-02-12T00:24:12.242Z,1.25
2019-02-12T00:24:45.431Z,1.25
2019-02-12T00:25:18.464Z,1.25
2019-02-12T00:25:51.549Z,1.31
2019-02-12T00:26:24.494Z,1.31
2019-02-12T00:26:57.486Z,1.31
2019-02-12T00:27:30.531Z,1.31
2019-02-12T00:28:04.040Z,1.25
2019-02-12T00:28:36.996Z,1.25
2019-02-12T00:29:10.088Z,1.25
2019-02-12T00:29:43.012Z,1.25
2019-02-12T00:30:15.997Z,1.25
2019-02-12T00:30:49.016Z,1.19
2019-02-12T00:31:21.940Z,1.19
2019-02-12T00:31:54.871Z,1.19
2019-02-12T00:33:01.409Z,1.19
2019-02-12T00:33:34.292Z,1.19
2019-02-12T00:34:07.345Z,1.19
2019-02-12T00:34:40.588Z,1.19
2019-02-12T00:35:13.620Z,1.19
2019-02-12T00:35:48.302Z,1.19
2019-02-12T00:36:22.236Z,1.19
2019-02-12T00:36:55.156Z,1.19
2019-02-12T00:37:28.296Z,1.12
2019-02-12T00:38:01.397Z,1.12
2019-02-12T00:38:34.230Z,1.12
2019-02-12T00:39:08.297Z,1.12
2019-02-12T00:39:41.236Z,1.12
2019-02-12T00:40:14.259Z,1.12
2019-02-12T00:40:47.067Z,1.06
2019-02-12T00:41:19.924Z,1.06
2019-02-12T00:41:52.739Z,1.06
2019-02-12T00:42:26.287Z,1.06
2019-02-12T00:42:59.319Z,1.06
2019-02-12T00:43:32.128Z,1.06
2019-02-12T00:44:05.087Z,1.06
2019-02-12T00:44:37.940Z,1.06
2019-02-12T00:45:10.976Z,1.06
2019-02-12T00:45:44.040Z,1.00
2019-02-12T00:46:17.065Z,1.00
2019-02-12T00:46:49.970Z,1.00
2019-02-12T00:49:50.921Z,1.00
2019-02-12T00:50:23.904Z,0.94
2019-02-12T00:50:57.017Z,0.94
2019-02-12T00:51:29.904Z,0.94
2019-02-12T00:52:03.170Z,0.94
2019-02-12T00:52:36.447Z,0.94
2019-02-12T00:53:09.366Z,0.94
2019-02-12T00:53:42.410Z,0.94
2019-02-12T00:54:15.264Z,0.88
2019-02-12T00:54:48.296Z,0.88
2019-02-12T00:55:21.320Z,0.88
2019-02-12T00:55:54.260Z,0.88
2019-02-12T00:56:27.202Z,0.88
2019-02-12T00:57:00.102Z,0.88
2019-02-12T00:57:33.156Z,0.88
2019-02-12T00:58:05.951Z,0.81
2019-02-12T00:58:38.878Z,0.81
2019-02-12T00:59:11.777Z,0.81
2019-02-12T00:59:44.734Z,0.81
2019-02-12T01:00:17.734Z,0.81
2019-02-12T01:00:50.755Z,0.81
2019-02-12T01:01:23.651Z,0.81
2019-02-12T01:01:56.361Z,0.81
2019-02-12T01:02:29.363Z,0.81
2019-02-12T01:03:02.503Z,0.81
2019-02-12T01:03:35.404Z,0.75
2019-02-12T01:04:08.394Z,0.75
2019-02-12T01:04:41.378Z,0.75
2019-02-12T01:05:14.508Z,0.75
2019-02-12T01:05:47.594Z,0.75
2019-02-12T01:06:20.593Z,0.75
2019-02-12T01:06:53.591Z,0.69
2019-02-12T01:07:26.520Z,0.69
2019-02-12T01:07:59.440Z,0.69
2019-02-12T01:08:32.617Z,0.69
2019-02-12T01:09:05.627Z,0.69
2019-02-12T01:09:39.738Z,0.69
2019-02-12T01:10:12.849Z,0.69
2019-02-12T01:10:45.909Z,0.69
2019-02-12T01:11:18.907Z,0.69
2019-02-12T01:11:51.951Z,0.69
2019-02-12T01:12:24.869Z,0.69
2019-02-12T01:12:57.911Z,0.69
2019-02-12T01:13:30.923Z,0.62
2019-02-12T01:14:04.677Z,0.62
2019-02-12T01:14:37.605Z,0.62
2019-02-12T01:15:11.729Z,0.62
2019-02-12T01:15:44.731Z,0.62
2019-02-12T01:16:18.098Z,0.62
2019-02-12T01:16:51.161Z,0.62
2019-02-12T01:17:24.179Z,0.62
2019-02-12T01:19:39.925Z,0.69
2019-02-12T01:20:13.066Z,0.69
2019-02-12T01:20:45.990Z,0.69
2019-02-12T01:21:26.006Z,0.69
2019-02-12T01:21:53.993Z,0.69
2019-02-12T01:22:26.930Z,0.69
2019-02-12T01:22:59.881Z,0.69
2019-02-12T01:23:33.015Z,0.69
2019-02-12T01:24:05.941Z,0.69
2019-02-12T01:24:39.029Z,0.69
2019-02-12T01:25:13.749Z,0.69
2019-02-12T01:25:46.654Z,0.69
2019-02-12T01:26:19.714Z,0.69
2019-02-12T01:26:52.732Z,0.75
2019-02-12T01:27:25.864Z,0.75
2019-02-12T01:27:58.745Z,0.75
2019-02-12T01:28:31.599Z,0.75
2019-02-12T01:29:04.589Z,0.75
2019-02-12T01:29:37.437Z,0.75
2019-02-12T01:30:14.181Z,0.75
2019-02-12T01:30:48.865Z,0.75
2019-02-12T01:31:21.773Z,0.75
2019-02-12T01:31:54.786Z,0.69
2019-02-12T01:32:27.695Z,0.69
2019-02-12T01:34:43.402Z,0.69
2019-02-12T01:35:16.395Z,0.69
2019-02-12T01:35:49.381Z,0.75
2019-02-12T01:36:22.315Z,0.75
2019-02-12T01:36:55.249Z,0.75
2019-02-12T01:37:28.311Z,0.75
2019-02-12T01:38:01.448Z,0.75
2019-02-12T01:38:34.267Z,0.75
2019-02-12T01:39:10.630Z,0.75
2019-02-12T01:39:43.453Z,0.75
2019-02-12T01:40:16.549Z,0.75
2019-02-12T01:40:49.470Z,0.75
2019-02-12T01:41:22.419Z,0.75
2019-02-12T01:41:55.364Z,0.75
2019-02-12T01:42:28.231Z,0.75
2019-02-12T01:43:01.250Z,0.75
2019-02-12T01:43:34.262Z,0.75
2019-02-12T01:44:07.267Z,0.75
2019-02-12T01:44:40.357Z,0.81
2019-02-12T01:45:13.441Z,0.81
2019-02-12T01:45:47.617Z,0.81
2019-02-12T01:46:20.629Z,0.81
2019-02-12T01:46:53.635Z,0.81
2019-02-12T01:47:26.445Z,0.81
2019-02-12T01:49:41.677Z,0.88
2019-02-12T01:50:14.567Z,0.88
2019-02-12T01:50:47.526Z,0.88
2019-02-12T01:51:20.440Z,0.88
2019-02-12T01:51:53.391Z,0.88
2019-02-12T01:52:26.306Z,0.94
2019-02-12T01:52:59.255Z,0.94
2019-02-12T01:53:32.079Z,0.94
2019-02-12T01:54:05.038Z,1.00
2019-02-12T01:54:37.901Z,1.00
2019-02-12T01:55:11.040Z,1.00
2019-02-12T01:55:43.823Z,1.06
2019-02-12T01:56:16.682Z,1.06
2019-02-12T01:56:49.673Z,1.12
2019-02-12T01:57:22.687Z,1.12
2019-02-12T01:57:55.478Z,1.12
2019-02-12T01:58:28.493Z,1.12
2019-02-12T01:59:01.403Z,1.12
2019-02-12T01:59:34.237Z,1.06
2019-02-12T02:00:10.701Z,1.06
2019-02-12T02:00:43.756Z,1.06
2019-02-12T02:01:17.975Z,1.06
2019-02-12T02:01:51.048Z,1.06
2019-02-12T02:02:25.053Z,1.12
2019-02-12T02:04:40.362Z,1.12
2019-02-12T02:05:13.345Z,1.12
2019-02-12T02:05:46.388Z,1.12
2019-02-12T02:06:19.270Z,1.19
2019-02-12T02:06:53.748Z,1.19
2019-02-12T02:07:26.646Z,1.19
2019-02-12T02:07:59.697Z,1.19
2019-02-12T02:08:32.510Z,1.19
2019-02-12T02:09:05.970Z,1.25
2019-02-12T02:09:38.889Z,1.25
2019-02-12T02:10:15.518Z,1.25
2019-02-12T02:10:48.406Z,1.25
2019-02-12T02:11:21.470Z,1.25
2019-02-12T02:11:54.457Z,1.31
2019-02-12T02:12:27.544Z,1.31
2019-02-12T02:13:00.426Z,1.37
2019-02-12T02:13:33.364Z,1.37
2019-02-12T02:14:06.522Z,1.37
2019-02-12T02:14:39.588Z,1.37
2019-02-12T02:15:12.953Z,1.37
2019-02-12T02:15:47.005Z,1.37
2019-02-12T02:16:19.950Z,1.44
2019-02-12T02:16:53.025Z,1.44
2019-02-12T02:17:26.098Z,1.44
2019-02-12T02:19:26.794Z,1.50
2019-02-12T02:20:00.648Z,1.56
2019-02-12T02:20:33.752Z,1.56
2019-02-12T02:21:06.919Z,1.56
2019-02-12T02:21:44.148Z,1.56
2019-02-12T02:22:14.943Z,1.56
2019-02-12T02:22:47.990Z,1.56
2019-02-12T02:23:20.842Z,1.62
2019-02-12T02:23:53.809Z,1.62
2019-02-12T02:24:26.722Z,1.62
2019-02-12T02:24:59.609Z,1.69
2019-02-12T02:25:34.135Z,1.69
2019-02-12T02:26:07.172Z,1.69
2019-02-12T02:26:40.370Z,1.69
2019-02-12T02:27:13.325Z,1.75
2019-02-12T02:27:46.559Z,1.75
2019-02-12T02:28:19.416Z,1.75
2019-02-12T02:28:52.380Z,1.75
2019-02-12T02:29:26.149Z,1.75
2019-02-12T02:30:00.405Z,1.75
2019-02-12T02:30:33.329Z,1.75
2019-02-12T02:31:06.355Z,1.75
2019-02-12T02:31:39.247Z,1.75
2019-02-12T02:32:12.499Z,1.75
2019-02-12T02:32:45.403Z,1.75
2019-02-12T02:34:06.689Z,1.75
2019-02-12T02:34:39.988Z,1.75
2019-02-12T02:35:13.002Z,1.75
2019-02-12T02:35:45.901Z,1.75
2019-02-12T02:36:18.718Z,1.75
2019-02-12T02:36:51.529Z,1.75
2019-02-12T02:37:24.483Z,1.75
2019-02-12T02:37:57.387Z,1.81
2019-02-12T02:38:30.404Z,1.81
2019-02-12T02:39:04.546Z,1.81
2019-02-12T02:39:39.416Z,1.81
2019-02-12T02:40:12.541Z,1.81
2019-02-12T02:40:45.476Z,1.81
2019-02-12T02:41:18.433Z,1.87
2019-02-12T02:41:51.450Z,1.87
2019-02-12T02:42:24.349Z,1.87
2019-02-12T02:42:57.190Z,1.87
2019-02-12T02:43:30.108Z,1.87
2019-02-12T02:44:03.241Z,1.87
2019-02-12T02:44:36.190Z,1.94
2019-02-12T02:45:10.477Z,1.94
2019-02-12T02:45:43.383Z,1.94
2019-02-12T02:46:16.399Z,1.94
2019-02-12T02:46:49.412Z,2.00
2019-02-12T02:47:22.320Z,2.00
2019-02-12T02:47:55.322Z,2.00
2019-02-12T02:48:46.497Z,2.06
2019-02-12T02:49:20.394Z,2.06
2019-02-12T02:49:53.536Z,2.06
2019-02-12T02:50:26.436Z,2.06
2019-02-12T02:50:59.361Z,2.12
2019-02-12T02:51:32.250Z,2.12
2019-02-12T02:52:05.294Z,2.12
2019-02-12T02:52:38.326Z,2.12
2019-02-12T02:53:11.238Z,2.19
2019-02-12T02:53:44.160Z,2.19
2019-02-12T02:54:17.132Z,2.25
2019-02-12T02:54:51.655Z,2.25
2019-02-12T02:55:24.596Z,2.31
2019-02-12T02:55:57.390Z,2.31
2019-02-12T02:56:30.321Z,2.37
2019-02-12T02:57:03.296Z,2.37
2019-02-12T02:57:36.289Z,2.37
2019-02-12T02:58:09.230Z,2.37
2019-02-12T02:58:42.300Z,2.37
2019-02-12T02:59:15.330Z,2.37
2019-02-12T02:59:48.357Z,2.37
2019-02-12T03:00:21.355Z,2.44
2019-02-12T03:00:54.614Z,2.44
2019-02-12T03:01:28.559Z,2.50
2019-02-12T03:02:02.788Z,2.50
2019-02-12T03:02:35.839Z,2.50
2019-02-12T03:03:24.964Z,2.50
2019-02-12T03:03:57.980Z,2.50
2019-02-12T03:04:30.941Z,2.50
2019-02-12T03:05:05.388Z,2.50
2019-02-12T03:05:38.341Z,2.50
2019-02-12T03:06:11.433Z,2.56
2019-02-12T03:06:44.608Z,2.56
2019-02-12T03:07:17.698Z,2.56
2019-02-12T03:07:50.719Z,2.56
2019-02-12T03:08:23.649Z,2.56
2019-02-12T03:08:56.826Z,2.62
2019-02-12T03:09:29.783Z,2.69
2019-02-12T03:10:03.328Z,2.69
2019-02-12T03:10:36.200Z,2.69
2019-02-12T03:11:09.168Z,2.69
2019-02-12T03:11:42.210Z,2.69
2019-02-12T03:12:16.161Z,2.69
2019-02-12T03:12:49.232Z,2.69
2019-02-12T03:13:22.205Z,2.75
2019-02-12T03:13:55.260Z,2.75
2019-02-12T03:14:28.287Z,2.75
2019-02-12T03:15:01.548Z,2.75
2019-02-12T03:15:34.565Z,2.81
2019-02-12T03:16:07.523Z,2.81
2019-02-12T03:16:40.372Z,2.87
2019-02-12T03:17:13.890Z,2.87
2019-02-12T03:17:46.818Z,2.87
2019-02-12T03:18:19.801Z,2.87
2019-02-12T03:18:52.898Z,2.87
2019-02-12T03:19:26.564Z,2.87
2019-02-12T03:19:59.413Z,2.87
2019-02-12T03:20:32.448Z,2.81
2019-02-12T03:21:05.480Z,2.81
2019-02-12T03:21:38.929Z,2.81
2019-02-12T03:22:13.355Z,2.81
2019-02-12T03:22:46.430Z,2.81
2019-02-12T03:23:19.322Z,2.81
2019-02-12T03:23:52.143Z,2.81
2019-02-12T03:24:24.960Z,2.81
2019-02-12T03:24:57.855Z,2.81
2019-02-12T03:25:30.778Z,2.81
2019-02-12T03:26:03.807Z,2.81
2019-02-12T03:26:36.817Z,2.81
2019-02-12T03:27:09.793Z,2.81
2019-02-12T03:27:42.716Z,2.81
2019-02-12T03:28:15.536Z,2.87
2019-02-12T03:28:48.544Z,2.87
2019-02-12T03:29:21.466Z,2.94
2019-02-12T03:29:54.394Z,2.94
2019-02-12T03:30:27.433Z,2.94
2019-02-12T03:31:00.440Z,2.94
2019-02-12T03:31:33.347Z,2.87
2019-02-12T03:32:06.323Z,2.87
2019-02-12T03:32:39.421Z,2.87
2019-02-12T03:33:12.454Z,2.81
2019-02-12T03:37:48.744Z,2.81
2019-02-12T03:38:21.692Z,2.75
2019-02-12T03:38:54.605Z,2.75
2019-02-12T03:39:27.457Z,2.75
2019-02-12T03:40:00.430Z,2.75
2019-02-12T03:40:33.472Z,2.75
2019-02-12T03:41:06.440Z,2.75
2019-02-12T03:41:39.410Z,2.75
2019-02-12T03:42:12.598Z,2.75
2019-02-12T03:42:45.551Z,2.75
2019-02-12T03:43:18.632Z,2.81
2019-02-12T03:43:51.598Z,2.81
2019-02-12T03:44:24.811Z,2.81
2019-02-12T03:44:57.768Z,2.81
2019-02-12T03:45:30.741Z,2.81
2019-02-12T03:46:03.795Z,2.81
2019-02-12T03:46:36.935Z,2.81
2019-02-12T03:47:09.993Z,2.81
2019-02-12T03:47:42.928Z,2.81
2019-02-12T03:48:15.897Z,2.81
2019-02-12T03:48:48.718Z,2.75
2019-02-12T03:49:22.004Z,2.75
2019-02-12T03:49:55.107Z,2.75
2019-02-12T03:50:28.509Z,2.75
2019-02-12T03:51:01.424Z,2.75
2019-02-12T03:51:34.489Z,2.75
2019-02-12T03:52:13.057Z,2.69
2019-02-12T03:52:42.399Z,2.69
2019-02-12T03:53:15.457Z,2.75
2019-02-12T03:53:48.264Z,2.75
2019-02-12T03:54:21.203Z,2.75
2019-02-12T03:54:54.196Z,2.69
2019-02-12T03:55:27.238Z,2.69
2019-02-12T03:56:00.431Z,2.69
2019-02-12T03:56:33.471Z,2.69
2019-02-12T03:57:08.010Z,2.69
2019-02-12T03:57:41.663Z,2.69
2019-02-12T03:58:14.885Z,2.69
2019-02-12T03:58:48.123Z,2.69
2019-02-12T03:59:21.109Z,2.69
2019-02-12T03:59:54.166Z,2.69
2019-02-12T04:00:27.161Z,2.69
2019-02-12T04:01:00.192Z,2.69
2019-02-12T04:01:33.214Z,2.69
2019-02-12T04:02:06.344Z,2.62
2019-02-12T04:03:01.750Z,2.62
2019-02-12T04:07:15.483Z,2.62
2019-02-12T04:07:48.436Z,2.62
2019-02-12T04:08:21.371Z,2.62
2019-02-12T04:08:54.333Z,2.62
2019-02-12T04:09:27.275Z,2.62
2019-02-12T04:10:00.351Z,2.62
2019-02-12T04:10:33.795Z,2.69
2019-02-12T04:11:06.737Z,2.69
2019-02-12T04:11:39.725Z,2.69
2019-02-12T04:12:12.763Z,2.69
2019-02-12T04:12:45.777Z,2.69
2019-02-12T04:13:18.935Z,2.69
2019-02-12T04:13:51.905Z,2.69
2019-02-12T04:14:25.085Z,2.69
2019-02-12T04:14:57.994Z,2.69
2019-02-12T04:15:31.033Z,2.69
2019-02-12T04:16:04.038Z,2.69
2019-02-12T04:16:37.124Z,2.69
2019-02-12T04:17:10.133Z,2.69
2019-02-12T04:17:42.963Z,2.69
2019-02-12T04:18:15.811Z,2.69
2019-02-12T04:18:48.640Z,2.69
2019-02-12T04:19:21.571Z,2.69
2019-02-12T04:19:54.544Z,2.69
2019-02-12T04:20:27.690Z,2.69
2019-02-12T04:21:00.756Z,2.69
2019-02-12T04:21:33.636Z,2.75
2019-02-12T04:22:06.773Z,2.75
2019-02-12T04:22:39.625Z,2.75
2019-02-12T04:23:12.527Z,2.75
2019-02-12T04:23:45.450Z,2.75
2019-02-12T04:24:18.392Z,2.75
2019-02-12T04:24:51.305Z,2.75
2019-02-12T04:25:25.878Z,2.75
2019-02-12T04:25:58.791Z,2.75
2019-02-12T04:26:31.789Z,2.75
2019-02-12T04:27:04.809Z,2.75
2019-02-12T04:27:37.843Z,2.69
2019-02-12T04:28:10.749Z,2.69
2019-02-12T04:28:43.715Z,2.69
2019-02-12T04:29:16.613Z,2.69
2019-02-12T04:29:49.434Z,2.75
2019-02-12T04:30:22.359Z,2.69
2019-02-12T04:30:55.503Z,2.69
2019-02-12T04:31:28.401Z,2.69
2019-02-12T04:32:01.341Z,2.69
2019-02-12T04:32:34.234Z,2.69
2019-02-12T04:33:08.282Z,2.69
2019-02-12T04:33:41.173Z,2.69
2019-02-12T04:34:14.033Z,2.69
2019-02-12T04:34:46.842Z,2.69
2019-02-12T04:35:19.999Z,2.69
2019-02-12T04:35:52.777Z,2.69
2019-02-12T04:36:25.902Z,2.69
2019-02-12T04:36:58.693Z,2.69
2019-02-12T04:37:31.537Z,2.62
2019-02-12T04:38:04.538Z,2.69
2019-02-12T04:38:38.418Z,2.69
2019-02-12T04:39:11.225Z,2.69
2019-02-12T04:39:44.266Z,2.69
2019-02-12T04:40:17.355Z,2.69
2019-02-12T04:40:50.345Z,2.69
2019-02-12T04:41:23.241Z,2.69
2019-02-12T04:41:56.797Z,2.69
2019-02-12T04:42:29.724Z,2.69
2019-02-12T04:43:02.746Z,2.69
2019-02-12T04:43:35.531Z,2.69
2019-02-12T04:44:08.501Z,2.69
2019-02-12T04:44:41.397Z,2.69
2019-02-12T04:45:14.449Z,2.75
2019-02-12T04:45:47.484Z,2.75
2019-02-12T04:46:20.384Z,2.75
2019-02-12T04:46:53.387Z,2.75
2019-02-12T04:47:26.444Z,2.75
2019-02-12T04:47:59.238Z,2.75
2019-02-12T04:51:57.379Z,2.87
2019-02-12T04:52:31.960Z,2.87
2019-02-12T04:53:05.227Z,2.87
2019-02-12T04:53:38.143Z,2.94
2019-02-12T04:54:11.187Z,2.94
2019-02-12T04:54:44.082Z,2.94
2019-02-12T04:55:17.143Z,2.94
2019-02-12T04:55:50.169Z,2.94
2019-02-12T04:56:23.213Z,2.94
2019-02-12T04:56:56.118Z,3.00
2019-02-12T04:57:29.092Z,3.00
2019-02-12T04:58:02.085Z,3.00
2019-02-12T04:58:35.039Z,3.00
2019-02-12T04:59:07.911Z,3.00
2019-02-12T04:59:40.915Z,3.06
2019-02-12T05:00:14.841Z,3.06
2019-02-12T05:00:48.266Z,3.06
2019-02-12T05:01:21.265Z,3.06
2019-02-12T05:01:54.213Z,3.06
2019-02-12T05:02:27.109Z,3.06
2019-02-12T05:03:00.065Z,3.06
2019-02-12T05:03:32.953Z,3.06
2019-02-12T05:06:31.274Z,3.06
2019-02-12T05:07:04.171Z,3.06
2019-02-12T05:07:37.095Z,3.06
2019-02-12T05:08:10.157Z,3.06
2019-02-12T05:09:18.822Z,3.06
2019-02-12T05:09:53.524Z,3.06
2019-02-12T05:10:29.900Z,3.06
2019-02-12T05:11:02.991Z,3.06
2019-02-12T05:11:35.955Z,3.12
2019-02-12T05:12:08.917Z,3.12
2019-02-12T05:12:41.838Z,3.06
2019-02-12T05:13:14.809Z,3.06
2019-02-12T05:13:47.810Z,3.06
2019-02-12T05:14:20.848Z,3.06
2019-02-12T05:14:53.730Z,3.06
2019-02-12T05:15:26.738Z,3.06
2019-02-12T05:15:59.746Z,3.06
2019-02-12T05:16:32.673Z,3.06
2019-02-12T05:17:05.695Z,3.06
2019-02-12T05:17:40.003Z,3.06
2019-02-12T05:18:12.905Z,3.06
2019-02-12T05:21:31.801Z,3.06
2019-02-12T05:22:04.989Z,3.06
2019-02-12T05:22:43.681Z,3.06
2019-02-12T05:23:12.751Z,3.06
2019-02-12T05:23:45.742Z,3.06
2019-02-12T05:24:18.682Z,3.06
2019-02-12T05:24:52.568Z,3.06
2019-02-12T05:25:25.528Z,3.06
2019-02-12T05:25:59.672Z,3.06
2019-02-12T05:26:32.606Z,3.06
2019-02-12T05:27:05.566Z,3.06
2019-02-12T05:27:38.639Z,3.00
2019-02-12T05:28:11.627Z,3.00
2019-02-12T05:28:44.520Z,3.00
2019-02-12T05:29:18.317Z,3.00
2019-02-12T05:29:51.637Z,3.00
2019-02-12T05:30:24.545Z,3.00
2019-02-12T05:30:58.533Z,3.00
2019-02-12T05:31:31.515Z,3.00
2019-02-12T05:32:05.414Z,2.94
2019-02-12T05:32:38.378Z,2.94
2019-02-12T05:33:11.155Z,2.94
2019-02-12T05:35:40.884Z,2.94
2019-02-12T05:36:13.762Z,2.94
2019-02-12T05:36:46.826Z,2.94
2019-02-12T05:37:19.821Z,2.94
2019-02-12T05:37:52.858Z,2.94
2019-02-12T05:38:25.736Z,2.94
2019-02-12T05:38:58.731Z,2.94
2019-02-12T05:39:31.636Z,2.94
2019-02-12T05:40:06.438Z,2.94
2019-02-12T05:40:39.347Z,2.94
2019-02-12T05:41:12.352Z,2.94
2019-02-12T05:41:45.255Z,2.94
2019-02-12T05:42:18.300Z,2.94
2019-02-12T05:42:51.281Z,2.94
2019-02-12T05:43:24.165Z,2.94
2019-02-12T05:43:56.997Z,2.94
2019-02-12T05:44:29.876Z,2.94
2019-02-12T05:45:03.929Z,3.00
2019-02-12T05:45:37.897Z,3.00
2019-02-12T05:46:10.794Z,3.00
2019-02-12T05:46:43.610Z,3.00
2019-02-12T05:47:16.561Z,3.00
2019-02-12T05:47:49.440Z,3.00
2019-02-12T05:48:22.330Z,3.00
2019-02-12T05:50:51.936Z,3.00
2019-02-12T05:51:24.835Z,3.00
2019-02-12T05:51:57.778Z,3.00
2019-02-12T05:52:30.692Z,2.94
2019-02-12T05:53:03.709Z,3.00
2019-02-12T05:53:36.613Z,2.94
2019-02-12T05:54:09.435Z,3.00
2019-02-12T05:54:42.320Z,2.94
2019-02-12T05:55:15.228Z,2.94
2019-02-12T05:55:48.231Z,2.94
2019-02-12T05:56:21.121Z,2.94
2019-02-12T05:56:54.052Z,2.94
2019-02-12T05:57:26.946Z,2.94
2019-02-12T05:58:01.775Z,2.94
2019-02-12T05:58:34.674Z,2.87
2019-02-12T05:59:07.578Z,2.94
2019-02-12T05:59:40.431Z,2.87
2019-02-12T06:00:16.083Z,2.94
2019-02-12T06:00:49.075Z,2.87
2019-02-12T06:01:21.990Z,2.87
2019-02-12T06:01:54.813Z,2.87
2019-02-12T06:02:27.783Z,2.87
2019-02-12T06:03:00.892Z,2.87
2019-02-12T06:03:33.800Z,2.94
2019-02-12T06:04:55.934Z,2.94
2019-02-12T06:05:29.030Z,2.94
2019-02-12T06:06:02.157Z,2.94
2019-02-12T06:06:35.134Z,2.94
2019-02-12T06:07:08.031Z,2.94
2019-02-12T06:07:41.032Z,2.94
2019-02-12T06:08:13.952Z,2.94
2019-02-12T06:08:46.817Z,2.94
2019-02-12T06:09:19.639Z,2.94
2019-02-12T06:09:52.531Z,2.94
2019-02-12T06:10:25.516Z,2.94
2019-02-12T06:10:58.538Z,3.00
2019-02-12T06:11:31.487Z,2.94
2019-02-12T06:12:04.492Z,2.94
2019-02-12T06:12:37.421Z,3.00
2019-02-12T06:13:10.337Z,3.00
2019-02-12T06:13:43.270Z,3.00
2019-02-12T06:14:16.291Z,3.00
2019-02-12T06:14:49.199Z,3.00
2019-02-12T06:15:22.327Z,3.06
2019-02-12T06:15:55.270Z,3.06
2019-02-12T06:16:28.070Z,3.06
2019-02-12T06:17:00.971Z,3.06
2019-02-12T06:17:34.000Z,3.12
2019-02-12T06:18:08.437Z,3.12
2019-02-12T06:18:41.346Z,3.12
2019-02-12T06:19:14.360Z,3.19
2019-02-12T06:19:47.187Z,3.19
2019-02-12T06:20:20.299Z,3.19
2019-02-12T06:20:53.114Z,3.12
2019-02-12T06:21:26.166Z,3.12
2019-02-12T06:21:59.109Z,3.12
2019-02-12T06:22:32.105Z,3.12
2019-02-12T06:23:05.138Z,3.12
2019-02-12T06:23:39.441Z,3.12
2019-02-12T06:24:12.586Z,3.19
2019-02-12T06:24:45.715Z,3.19
2019-02-12T06:25:18.624Z,3.19
2019-02-12T06:25:51.493Z,3.19
2019-02-12T06:26:24.533Z,3.19
2019-02-12T06:26:57.546Z,3.19
2019-02-12T06:27:30.521Z,3.19
2019-02-12T06:28:03.696Z,3.19
2019-02-12T06:28:36.699Z,3.19
2019-02-12T06:29:09.605Z,3.19
2019-02-12T06:29:42.619Z,3.19
2019-02-12T06:30:15.658Z,3.19
2019-02-12T06:30:48.624Z,3.19
2019-02-12T06:31:21.864Z,3.19
2019-02-12T06:31:55.857Z,3.19
2019-02-12T06:32:28.717Z,3.19
2019-02-12T06:33:07.544Z,3.19
2019-02-12T06:33:36.567Z,3.19
2019-02-12T06:34:22.967Z,3.19
2019-02-12T06:34:56.006Z,3.19
2019-02-12T06:35:28.965Z,3.19
2019-02-12T06:36:02.133Z,3.19
2019-02-12T06:36:35.077Z,3.25
2019-02-12T06:37:09.515Z,3.25
2019-02-12T06:37:42.481Z,3.25
2019-02-12T06:38:16.257Z,3.31
2019-02-12T06:38:49.316Z,3.31
2019-02-12T06:39:22.476Z,3.31
2019-02-12T06:39:55.436Z,3.31
2019-02-12T06:40:28.656Z,3.31
2019-02-12T06:41:01.755Z,3.31
2019-02-12T06:41:34.751Z,3.31
2019-02-12T06:42:07.779Z,3.31
2019-02-12T06:42:40.917Z,3.37
2019-02-12T06:43:14.047Z,3.31
2019-02-12T06:43:46.908Z,3.37
2019-02-12T06:44:21.521Z,3.37
2019-02-12T06:44:54.479Z,3.37
2019-02-12T06:45:27.456Z,3.37
2019-02-12T06:46:00.491Z,3.37
2019-02-12T06:46:33.455Z,3.37
2019-02-12T06:47:06.328Z,3.37
2019-02-12T06:47:39.269Z,3.44
2019-02-12T06:48:12.318Z,3.44
2019-02-12T06:48:45.272Z,3.44
2019-02-12T06:49:18.297Z,3.44
2019-02-12T06:49:51.285Z,3.44
2019-02-12T06:50:24.249Z,3.44
2019-02-12T06:50:57.081Z,3.44
2019-02-12T06:51:30.003Z,3.44
2019-02-12T06:52:03.193Z,3.44
2019-02-12T06:52:36.144Z,3.44
2019-02-12T06:53:12.470Z,3.50
2019-02-12T06:53:44.079Z,3.50
2019-02-12T06:54:18.117Z,3.50
2019-02-12T06:54:51.465Z,3.50
2019-02-12T06:55:24.400Z,3.50
2019-02-12T06:55:57.363Z,3.50
2019-02-12T06:56:30.217Z,3.50
2019-02-12T06:57:03.302Z,3.50
2019-02-12T06:57:36.930Z,3.56
2019-02-12T06:58:09.876Z,3.56
2019-02-12T06:58:42.709Z,3.56
2019-02-12T06:59:17.164Z,3.56
2019-02-12T06:59:51.713Z,3.56
2019-02-12T07:00:25.865Z,3.56
2019-02-12T07:00:58.803Z,3.56
2019-02-12T07:01:33.502Z,3.56
2019-02-12T07:03:03.547Z,3.56
2019-02-12T07:04:01.847Z,3.56
2019-02-12T07:04:34.831Z,3.62
2019-02-12T07:05:07.877Z,3.62
2019-02-12T07:06:31.233Z,3.62
2019-02-12T07:08:12.457Z,3.69
2019-02-12T07:09:31.342Z,3.62
2019-02-12T07:10:29.915Z,3.62
2019-02-12T07:11:22.736Z,3.69
2019-02-12T07:12:43.768Z,3.69
2019-02-12T07:13:53.258Z,3.69
2019-02-12T07:15:04.211Z,3.75
2019-02-12T07:16:11.537Z,3.69
2019-02-12T07:17:49.411Z,3.75
2019-02-12T07:23:04.091Z,3.81
2019-02-12T07:24:38.392Z,3.87
2019-02-12T07:25:58.080Z,3.87
2019-02-12T07:27:17.659Z,3.94
2019-02-12T07:28:19.081Z,3.94
2019-02-12T07:29:40.991Z,3.94
2019-02-12T07:31:09.560Z,4.00
2019-02-12T07:32:49.704Z,3.94
2019-02-12T07:39:04.112Z,4.00
2019-02-12T07:40:18.735Z,4.00
2019-02-12T07:41:55.024Z,4.00
2019-02-12T07:43:34.388Z,4.00
2019-02-12T07:46:01.698Z,4.06
2019-02-12T07:47:29.867Z,4.06
2019-02-12T07:48:45.712Z,4.12
2019-02-12T07:50:43.938Z,4.19
2019-02-12T07:52:08.619Z,4.25
2019-02-12T07:52:58.568Z,4.25
2019-02-12T07:54:09.631Z,4.25
2019-02-12T07:55:48.198Z,4.25
2019-02-12T07:57:16.293Z,4.31
2019-02-12T07:58:39.168Z,4.31
2019-02-12T07:59:44.109Z,4.37
2019-02-12T08:00:51.422Z,4.37
2019-02-12T08:02:36.442Z,4.44
2019-02-12T08:04:37.981Z,4.50
2019-02-12T08:05:36.679Z,4.50
2019-02-12T08:06:24.964Z,4.50
2019-02-12T08:07:28.946Z,4.56
2019-02-12T08:08:28.431Z,4.62
2019-02-12T08:10:09.584Z,4.56
2019-02-12T08:11:53.380Z,4.62
2019-02-12T08:13:21.516Z,4.62
2019-02-12T08:14:34.041Z,4.62
2019-02-12T08:15:34.860Z,4.56
2019-02-12T08:16:47.381Z,4.62
2019-02-12T08:18:22.968Z,4.62
2019-02-12T08:19:30.494Z,4.69
2019-02-12T08:21:09.923Z,4.69
2019-02-12T08:22:31.547Z,4.75
2019-02-12T08:23:48.753Z,4.75
2019-02-12T08:25:12.426Z,4.81
2019-02-12T08:26:30.493Z,4.81
2019-02-12T08:27:39.610Z,4.87
2019-02-12T08:29:35.220Z,4.94
2019-02-12T08:30:51.140Z,4.94
2019-02-12T08:32:31.563Z,4.94
2019-02-12T08:33:57.818Z,5.00
2019-02-12T08:35:05.356Z,5.06
2019-02-12T08:35:57.396Z,5.06
2019-02-12T08:37:11.223Z,5.06
2019-02-12T08:38:17.887Z,5.12
2019-02-12T08:39:44.603Z,5.12
2019-02-12T08:41:01.984Z,5.12
2019-02-12T08:42:20.511Z,5.12
2019-02-12T08:43:26.417Z,5.12
2019-02-12T08:44:35.226Z,5.19
2019-02-12T08:45:57.898Z,5.19
2019-02-12T08:47:21.646Z,5.25
2019-02-12T08:49:01.667Z,5.31
2019-02-12T08:50:07.152Z,5.37
2019-02-12T08:51:03.349Z,5.37
2019-02-12T08:52:36.750Z,5.37
2019-02-12T08:54:04.031Z,5.44
2019-02-12T08:55:18.206Z,5.50
2019-02-12T08:56:28.344Z,5.56
2019-02-12T08:57:43.751Z,5.62
2019-02-12T08:59:06.590Z,5.69
2019-02-12T09:00:28.795Z,5.69
2019-02-12T09:01:39.859Z,5.75
2019-02-12T09:03:01.664Z,5.81
2019-02-12T09:04:09.156Z,5.81
2019-02-12T09:05:43.011Z,5.87
2019-02-12T09:07:13.038Z,5.94
2019-02-12T09:08:17.696Z,6.00
2019-02-12T09:09:36.717Z,6.00
2019-02-12T09:11:03.038Z,6.06
2019-02-12T09:12:18.948Z,6.12
2019-02-12T09:13:22.440Z,6.12
2019-02-12T09:14:52.495Z,6.19
2019-02-12T09:16:29.815Z,6.19
2019-02-12T09:17:41.859Z,6.25
2019-02-12T09:18:55.776Z,6.31
2019-02-12T09:20:32.324Z,6.31
2019-02-12T09:22:22.745Z,6.37
2019-02-12T09:23:29.289Z,6.37
2019-02-12T09:25:11.147Z,6.37
2019-02-12T09:26:44.702Z,6.44
2019-02-12T09:28:34.066Z,6.44
2019-02-12T09:29:43.909Z,6.37
2019-02-12T09:31:07.583Z,6.37